Terminal Aerodrome Forecast
Issued by NWS

Home | Current Version | Previous Version | Text Only | Print | Product List | Glossary On
Versions: 1 2 3 4 5 6 7 8 9 10 11 12 13 14 15
000
FTUS46 KSGX 022337
TAFONT
TAF
KONT 022337Z 0300/0406 25012G18KT P6SM SKC
     FM030400 25007KT P6SM SKC
     FM031000 VRB04KT P6SM OVC010
     FM031600 24007KT P6SM SCT015
     FM031900 25010G18KT P6SM FEW020
     FM040500 VRB05KT P6SM SCT010=

USA.gov is the U.S. government's official web portal to all federal, state and local government web resources and services.